createdAt,value
2019-05-10T00:00:50.334Z,11.45
2019-05-10T00:03:37.033Z,11.44
2019-05-10T00:06:23.835Z,11.40
2019-05-10T00:08:51.757Z,11.38
2019-05-10T00:11:31.198Z,11.34
2019-05-10T00:14:29.993Z,11.31
2019-05-10T00:17:03.480Z,11.26
2019-05-10T00:19:32.493Z,11.17
2019-05-10T00:22:01.297Z,11.14
2019-05-10T00:24:30.074Z,11.09
2019-05-10T00:26:58.916Z,11.02
2019-05-10T00:29:27.728Z,10.97
2019-05-10T00:31:56.527Z,10.92
2019-05-10T00:34:25.309Z,10.87
2019-05-10T00:36:54.104Z,10.81
2019-05-10T00:39:23.022Z,10.78
2019-05-10T00:41:51.858Z,10.75
2019-05-10T00:44:20.802Z,10.69
2019-05-10T00:46:49.736Z,10.77
2019-05-10T00:49:18.888Z,10.81
2019-05-10T00:51:47.756Z,10.78
2019-05-10T00:54:16.913Z,10.80
2019-05-10T00:56:45.719Z,10.81
2019-05-10T00:59:14.642Z,10.84
2019-05-10T01:01:43.491Z,10.84
2019-05-10T01:04:12.250Z,10.85
2019-05-10T01:06:41.200Z,10.87
2019-05-10T01:09:11.627Z,10.86
2019-05-10T01:11:40.712Z,10.85
2019-05-10T01:14:09.479Z,10.81
2019-05-10T01:16:38.374Z,10.78
2019-05-10T01:19:07.272Z,10.77
2019-05-10T01:21:36.323Z,10.77
2019-05-10T01:24:05.301Z,10.75
2019-05-10T01:26:34.021Z,10.76
2019-05-10T01:29:02.807Z,10.75
2019-05-10T01:31:31.600Z,10.77
2019-05-10T01:34:02.323Z,10.78
2019-05-10T01:36:31.162Z,10.80
2019-05-10T01:39:00.337Z,10.82
2019-05-10T01:41:29.247Z,10.80
2019-05-10T01:43:58.012Z,10.80
2019-05-10T01:46:26.795Z,10.80
2019-05-10T01:48:55.694Z,10.76
2019-05-10T01:51:27.663Z,10.87
2019-05-10T01:53:54.887Z,10.86
2019-05-10T01:56:24.065Z,10.87
2019-05-10T01:58:52.816Z,10.88
2019-05-10T02:01:21.703Z,10.85
2019-05-10T02:03:50.892Z,10.85
2019-05-10T02:06:19.705Z,10.85
2019-05-10T02:08:48.437Z,10.84
2019-05-10T02:11:18.298Z,10.85
2019-05-10T02:13:47.403Z,10.85
2019-05-10T02:16:17.131Z,10.87
2019-05-10T02:18:45.950Z,10.87
2019-05-10T02:21:14.900Z,10.84
2019-05-10T02:23:43.605Z,10.84
2019-05-10T02:26:12.345Z,10.82
2019-05-10T02:28:41.175Z,10.79
2019-05-10T02:31:10.175Z,10.77
2019-05-10T02:33:39.040Z,10.73
2019-05-10T02:36:08.127Z,10.71
2019-05-10T02:38:36.975Z,10.68
2019-05-10T02:41:05.815Z,10.64
2019-05-10T02:43:34.570Z,10.67
2019-05-10T02:46:03.616Z,10.68
2019-05-10T02:48:32.612Z,10.68
2019-05-10T02:51:01.511Z,10.66
2019-05-10T02:53:30.653Z,10.70
2019-05-10T02:56:03.578Z,10.70
2019-05-10T02:58:33.598Z,10.67
2019-05-10T03:01:02.461Z,10.66
2019-05-10T03:03:32.772Z,10.69
2019-05-10T03:06:03.182Z,10.67
2019-05-10T03:08:47.342Z,10.66
2019-05-10T03:11:16.131Z,10.65
2019-05-10T03:13:48.182Z,10.62
2019-05-10T03:16:20.483Z,10.62
2019-05-10T03:18:50.737Z,10.63
2019-05-10T03:21:19.839Z,10.63
2019-05-10T03:23:48.965Z,10.58
2019-05-10T03:26:17.869Z,10.53
2019-05-10T03:28:46.981Z,10.47
2019-05-10T03:31:15.882Z,10.46
2019-05-10T03:33:44.760Z,10.41
2019-05-10T03:36:13.743Z,10.40
2019-05-10T03:38:43.193Z,10.40
2019-05-10T03:41:12.409Z,10.35
2019-05-10T03:43:41.563Z,10.35
2019-05-10T03:46:10.765Z,10.33
2019-05-10T03:48:39.628Z,10.31
2019-05-10T03:51:08.481Z,10.29
2019-05-10T03:53:37.255Z,10.24
2019-05-10T03:56:06.311Z,10.20
2019-05-10T03:58:35.082Z,10.21
2019-05-10T04:01:03.852Z,10.21
2019-05-10T04:03:32.682Z,10.19
2019-05-10T04:06:01.529Z,10.20
2019-05-10T04:08:30.367Z,10.12
2019-05-10T04:10:59.697Z,10.11
2019-05-10T04:13:28.448Z,10.09
2019-05-10T04:15:57.439Z,10.03
2019-05-10T04:18:27.025Z,10.03
2019-05-10T04:20:55.794Z,10.01
2019-05-10T04:23:24.665Z,10.03
2019-05-10T04:25:54.135Z,10.01
2019-05-10T04:28:23.211Z,10.08
2019-05-10T04:30:52.380Z,10.12
2019-05-10T04:33:21.245Z,10.17
2019-05-10T04:35:50.123Z,10.19
2019-05-10T04:38:18.988Z,10.23
2019-05-10T04:40:47.737Z,10.24
2019-05-10T04:43:17.657Z,10.24
2019-05-10T04:45:46.401Z,10.27
2019-05-10T04:48:15.288Z,10.28
2019-05-10T04:50:48.584Z,10.30
2019-05-10T04:53:14.736Z,10.31
2019-05-10T04:55:44.524Z,10.35
2019-05-10T04:58:13.469Z,10.42
2019-05-10T05:00:42.276Z,10.47
2019-05-10T05:03:11.181Z,10.56
2019-05-10T05:05:39.936Z,10.61
2019-05-10T05:08:08.900Z,10.67
2019-05-10T05:10:39.724Z,10.66
2019-05-10T05:13:08.595Z,10.79
2019-05-10T05:15:37.405Z,10.84
2019-05-10T05:18:06.324Z,10.98
2019-05-10T05:20:35.046Z,11.08
2019-05-10T05:23:03.937Z,11.25
2019-05-10T05:25:38.257Z,11.32
2019-05-10T05:28:07.997Z,11.38
2019-05-10T05:30:38.489Z,11.35
2019-05-10T05:33:05.694Z,11.37
2019-05-10T05:35:34.483Z,11.38
2019-05-10T05:38:03.624Z,11.34
2019-05-10T05:40:32.793Z,11.35
2019-05-10T05:43:02.666Z,11.36
2019-05-10T05:45:35.712Z,11.41
2019-05-10T05:48:07.047Z,11.49
2019-05-10T05:50:35.993Z,12.01
2019-05-10T05:53:06.856Z,13.02
2019-05-10T05:55:35.748Z,13.35
2019-05-10T05:58:07.049Z,13.67
2019-05-10T06:00:37.947Z,13.89
2019-05-10T06:03:08.713Z,14.69
2019-05-10T06:05:37.780Z,15.39
2019-05-10T06:08:21.459Z,16.77
2019-05-10T06:10:37.600Z,17.54
2019-05-10T06:13:06.616Z,17.95
2019-05-10T06:15:35.661Z,18.14
2019-05-10T06:18:09.543Z,18.37
2019-05-10T06:20:38.101Z,17.75
2019-05-10T06:23:07.226Z,17.06
2019-05-10T06:25:39.997Z,18.12
2019-05-10T06:28:25.323Z,19.38
2019-05-10T06:30:37.801Z,19.94
2019-05-10T06:33:12.600Z,20.35
2019-05-10T06:35:37.391Z,20.34
2019-05-10T06:38:06.240Z,20.31
2019-05-10T06:40:44.773Z,20.62
2019-05-10T06:43:06.784Z,20.50
2019-05-10T06:45:36.576Z,20.99
2019-05-10T06:48:05.558Z,21.74
2019-05-10T06:50:34.362Z,21.79
2019-05-10T06:53:07.612Z,22.28
2019-05-10T06:55:33.647Z,21.53
2019-05-10T06:58:02.374Z,22.41
2019-05-10T07:00:31.155Z,22.09
2019-05-10T07:02:59.993Z,22.63
2019-05-10T07:05:36.503Z,22.07
2019-05-10T07:08:15.000Z,20.80
2019-05-10T07:11:01.112Z,20.20
2019-05-10T07:13:19.476Z,19.27
2019-05-10T07:15:48.367Z,18.32
2019-05-10T07:18:22.628Z,17.64
2019-05-10T07:20:48.010Z,18.04
2019-05-10T07:23:16.771Z,17.86
2019-05-10T07:25:46.757Z,17.94
2019-05-10T07:28:17.702Z,18.04
2019-05-10T07:30:47.027Z,17.80
2019-05-10T07:33:15.936Z,17.95
2019-05-10T07:35:44.771Z,17.51
2019-05-10T07:38:13.907Z,17.39
2019-05-10T07:43:12.417Z,17.43
2019-05-10T07:45:41.188Z,17.12
2019-05-10T07:48:10.495Z,17.02
2019-05-10T07:50:42.630Z,16.87
2019-05-10T07:53:09.940Z,16.97
2019-05-10T07:55:38.756Z,17.27
2019-05-10T07:58:07.712Z,17.12
2019-05-10T08:00:38.223Z,16.93
2019-05-10T08:03:15.996Z,17.05
2019-05-10T08:05:39.150Z,16.98
2019-05-10T08:08:09.585Z,16.60
2019-05-10T08:10:39.856Z,16.52
2019-05-10T08:13:08.721Z,16.26
2019-05-10T08:15:38.520Z,16.46
2019-05-10T08:18:09.813Z,16.12
2019-05-10T08:20:49.595Z,16.12
2019-05-10T08:23:08.856Z,16.30
2019-05-10T08:25:44.307Z,16.29
2019-05-10T08:28:08.310Z,16.34
2019-05-10T08:30:52.261Z,16.41
2019-05-10T08:33:13.979Z,16.19
2019-05-10T08:35:45.864Z,16.01
2019-05-10T08:38:12.950Z,15.98
2019-05-10T08:40:42.852Z,15.83
2019-05-10T08:43:16.099Z,15.73
2019-05-10T08:45:45.139Z,15.54
2019-05-10T08:48:13.560Z,15.31
2019-05-10T08:50:50.639Z,15.16
2019-05-10T08:53:16.240Z,15.05
2019-05-10T08:55:44.140Z,14.92
2019-05-10T09:01:12.067Z,14.67
2019-05-10T09:03:32.227Z,14.62
2019-05-10T09:06:05.364Z,14.62
2019-05-10T09:08:34.579Z,14.55
2019-05-10T09:11:06.685Z,14.50
2019-05-10T09:13:37.120Z,14.60
2019-05-10T09:16:03.480Z,14.88
2019-05-10T09:18:33.112Z,14.99
2019-05-10T09:21:08.538Z,15.04
2019-05-10T09:23:32.810Z,15.09
2019-05-10T09:26:10.456Z,14.88
2019-05-10T09:28:32.540Z,14.90
2019-05-10T09:31:16.924Z,14.85
2019-05-10T09:33:32.094Z,14.75
2019-05-10T09:36:02.966Z,14.69
2019-05-10T09:38:34.887Z,14.62
2019-05-10T09:41:03.811Z,14.40
2019-05-10T09:43:32.765Z,14.30
2019-05-10T09:46:02.940Z,14.13
2019-05-10T09:48:33.285Z,14.05
2019-05-10T09:51:04.045Z,14.03
2019-05-10T09:53:33.094Z,13.95
2019-05-10T09:56:03.288Z,13.99
2019-05-10T09:58:34.287Z,14.02
2019-05-10T10:01:14.843Z,14.16
2019-05-10T10:03:43.578Z,14.54
2019-05-10T10:06:13.635Z,14.69
2019-05-10T10:08:43.547Z,15.22
2019-05-10T10:11:15.738Z,15.63
2019-05-10T10:13:48.843Z,15.99
2019-05-10T10:16:14.886Z,16.28
2019-05-10T10:18:43.792Z,16.63
2019-05-10T10:21:13.327Z,16.95
2019-05-10T10:23:42.330Z,17.09
2019-05-10T10:26:12.651Z,17.27
2019-05-10T10:28:41.810Z,17.59
2019-05-10T10:31:25.054Z,17.55
2019-05-10T10:33:43.201Z,17.54
2019-05-10T10:36:15.050Z,17.50
2019-05-10T10:38:47.117Z,17.37
2019-05-10T10:41:26.030Z,17.10
2019-05-10T10:43:53.230Z,17.03
2019-05-10T10:46:22.197Z,16.97
2019-05-10T10:48:51.577Z,16.85
2019-05-10T10:51:20.570Z,16.82
2019-05-10T10:53:49.532Z,16.73
2019-05-10T10:56:18.384Z,16.50
2019-05-10T10:58:49.763Z,16.46
2019-05-10T11:01:25.034Z,16.34
2019-05-10T11:03:49.158Z,16.20
2019-05-10T11:06:18.068Z,16.25
2019-05-10T11:08:46.961Z,16.19
2019-05-10T11:11:15.667Z,16.16
2019-05-10T11:13:46.314Z,16.04
2019-05-10T11:16:15.915Z,16.08
2019-05-10T11:18:44.764Z,16.06
2019-05-10T11:21:13.688Z,16.01
2019-05-10T11:23:42.551Z,16.00
2019-05-10T11:26:11.647Z,16.12
2019-05-10T11:28:44.043Z,16.12
2019-05-10T11:31:11.463Z,16.17
2019-05-10T11:33:41.428Z,16.14
2019-05-10T11:36:11.427Z,16.12
2019-05-10T11:38:42.043Z,16.10
2019-05-10T11:41:13.020Z,15.98
2019-05-10T11:43:42.091Z,15.63
2019-05-10T11:46:11.781Z,15.43
2019-05-10T11:48:42.245Z,15.22
2019-05-10T11:51:17.238Z,15.16
2019-05-10T11:53:41.796Z,15.22
2019-05-10T11:56:13.934Z,15.30
2019-05-10T11:58:46.005Z,15.39
2019-05-10T12:01:19.112Z,15.64
2019-05-10T12:03:44.797Z,15.99
2019-05-10T12:06:13.735Z,16.07
2019-05-10T12:08:43.521Z,16.19
2019-05-10T12:11:28.232Z,16.21
2019-05-10T12:13:42.865Z,16.22
2019-05-10T12:16:16.363Z,16.41
2019-05-10T12:18:46.383Z,16.42
2019-05-10T12:21:14.968Z,16.51
2019-05-10T12:26:59.150Z,16.61
2019-05-10T12:28:45.021Z,16.50
2019-05-10T12:31:17.054Z,16.52
2019-05-10T12:33:45.419Z,16.20
2019-05-10T12:36:25.512Z,16.21
2019-05-10T12:38:44.984Z,16.17
2019-05-10T12:41:13.862Z,16.05
2019-05-10T12:43:43.636Z,15.86
2019-05-10T12:46:12.603Z,15.84
2019-05-10T12:48:42.626Z,15.72
2019-05-10T12:51:12.585Z,15.58
2019-05-10T12:53:47.646Z,15.48
2019-05-10T12:56:13.716Z,15.42
2019-05-10T12:58:42.557Z,15.29
2019-05-10T13:01:11.512Z,15.23
2019-05-10T13:03:40.297Z,15.08
2019-05-10T13:06:09.484Z,14.96
2019-05-10T13:08:39.464Z,14.86
2019-05-10T13:11:08.289Z,14.94
2019-05-10T13:13:38.228Z,15.12
2019-05-10T13:16:09.525Z,15.50
2019-05-10T13:18:50.612Z,15.59
2019-05-10T13:21:20.968Z,15.80
2019-05-10T13:23:53.427Z,15.88
2019-05-10T13:26:18.748Z,15.84
2019-05-10T13:28:47.574Z,15.87
2019-05-10T13:31:16.928Z,15.71
2019-05-10T13:33:45.712Z,15.72
2019-05-10T13:36:14.618Z,15.66
2019-05-10T13:38:48.605Z,15.51
2019-05-10T13:41:17.859Z,15.45
2019-05-10T13:43:44.470Z,15.51
2019-05-10T13:46:14.266Z,15.56
2019-05-10T13:48:43.074Z,15.71
2019-05-10T13:51:11.950Z,15.99
2019-05-10T13:53:40.858Z,16.05
2019-05-10T13:56:12.480Z,15.95
2019-05-10T13:58:41.576Z,16.05
2019-05-10T14:01:13.272Z,16.15
2019-05-10T14:03:46.625Z,16.15
2019-05-10T14:06:13.699Z,16.21
2019-05-10T14:08:48.480Z,16.34
2019-05-10T14:11:19.293Z,16.46
2019-05-10T14:13:48.057Z,16.53
2019-05-10T14:16:19.821Z,16.53
2019-05-10T14:18:49.614Z,16.67
2019-05-10T14:21:18.564Z,16.76
2019-05-10T14:23:47.441Z,16.91
2019-05-10T14:26:18.177Z,16.92
2019-05-10T14:28:54.573Z,16.93
2019-05-10T14:31:29.137Z,16.85
2019-05-10T14:34:14.100Z,16.77
2019-05-10T14:36:34.080Z,16.47
2019-05-10T14:39:07.115Z,16.46
2019-05-10T14:41:40.335Z,16.28
2019-05-10T14:44:10.673Z,16.15
2019-05-10T14:46:39.588Z,16.28
2019-05-10T14:49:09.898Z,16.49
2019-05-10T14:51:58.416Z,16.51
2019-05-10T14:54:20.925Z,16.64
2019-05-10T14:56:49.784Z,16.73
2019-05-10T14:59:20.586Z,16.77
2019-05-10T15:01:49.729Z,16.85
2019-05-10T15:04:43.643Z,16.78
2019-05-10T15:06:56.099Z,16.80
2019-05-10T15:09:27.121Z,16.68
2019-05-10T15:12:10.163Z,16.90
2019-05-10T15:14:36.435Z,17.02
2019-05-10T15:17:05.387Z,17.11
2019-05-10T15:19:34.330Z,17.29
2019-05-10T15:22:03.128Z,17.18
2019-05-10T15:24:32.139Z,17.09
2019-05-10T15:27:01.093Z,16.97
2019-05-10T15:29:31.030Z,16.94
2019-05-10T15:31:59.874Z,16.71
2019-05-10T15:34:28.727Z,16.50
2019-05-10T15:37:02.662Z,16.41
2019-05-10T15:39:30.349Z,16.34
2019-05-10T15:42:00.978Z,16.30
2019-05-10T15:44:33.204Z,16.15
2019-05-10T15:47:00.414Z,16.16
2019-05-10T15:49:29.182Z,16.13
2019-05-10T15:52:16.344Z,16.04
2019-05-10T15:54:28.547Z,15.97
2019-05-10T15:56:57.387Z,15.81
2019-05-10T15:59:26.103Z,15.72
2019-05-10T16:01:54.983Z,15.65
2019-05-10T16:04:26.011Z,15.56
2019-05-10T16:06:55.199Z,15.42
2019-05-10T16:09:24.146Z,15.38
2019-05-10T16:11:55.963Z,15.31
2019-05-10T16:14:45.729Z,15.23
2019-05-10T16:17:17.551Z,15.20
2019-05-10T16:19:45.675Z,15.11
2019-05-10T16:22:34.050Z,15.02
2019-05-10T16:25:03.022Z,14.94
2019-05-10T16:27:33.954Z,14.89
2019-05-10T16:30:02.434Z,15.04
2019-05-10T16:32:34.743Z,15.18
2019-05-10T16:35:05.620Z,15.33
2019-05-10T16:37:32.424Z,15.46
2019-05-10T16:40:01.333Z,15.57
2019-05-10T16:42:34.671Z,15.60
2019-05-10T16:45:01.866Z,15.65
2019-05-10T16:47:30.929Z,15.57
2019-05-10T16:50:00.773Z,15.50
2019-05-10T16:52:35.613Z,15.37
2019-05-10T16:55:05.450Z,15.25
2019-05-10T16:57:37.360Z,15.08
2019-05-10T17:00:08.211Z,15.04
2019-05-10T17:02:36.673Z,15.03
2019-05-10T17:05:09.559Z,14.95
2019-05-10T17:07:37.201Z,14.94
2019-05-10T17:10:06.240Z,14.87
2019-05-10T17:12:35.158Z,14.85
2019-05-10T17:15:04.232Z,14.79
2019-05-10T17:17:37.098Z,14.75
2019-05-10T17:20:07.552Z,14.74
2019-05-10T17:22:34.192Z,14.71
2019-05-10T17:25:03.702Z,14.70
2019-05-10T17:27:33.438Z,14.64
2019-05-10T17:30:02.399Z,14.60
2019-05-10T17:32:31.524Z,14.52
2019-05-10T17:35:04.585Z,14.50
2019-05-10T17:37:35.809Z,14.46
2019-05-10T17:40:04.822Z,14.41
2019-05-10T17:42:35.692Z,14.41
2019-05-10T17:45:04.443Z,14.40
2019-05-10T17:47:33.788Z,14.36
2019-05-10T17:50:02.693Z,14.34
2019-05-10T17:52:31.504Z,14.35
2019-05-10T17:55:00.350Z,14.32
2019-05-10T17:57:29.061Z,14.30
2019-05-10T17:59:57.874Z,14.30
2019-05-10T18:02:26.819Z,14.25
2019-05-10T18:04:59.695Z,14.23
2019-05-10T18:07:26.303Z,14.21
2019-05-10T18:10:01.176Z,14.13
2019-05-10T18:12:29.914Z,14.11
2019-05-10T18:14:58.731Z,14.09
2019-05-10T18:17:27.672Z,14.03
2019-05-10T18:20:01.835Z,13.99
2019-05-10T18:22:29.024Z,13.96
2019-05-10T18:24:57.626Z,13.93
2019-05-10T18:27:26.439Z,13.89
2019-05-10T18:29:55.254Z,13.86
2019-05-10T18:32:29.216Z,13.82
2019-05-10T18:34:54.742Z,13.75
2019-05-10T18:37:23.561Z,13.70
2019-05-10T18:39:53.326Z,13.68
2019-05-10T18:42:25.477Z,13.65
2019-05-10T18:44:54.209Z,13.65
2019-05-10T18:47:23.079Z,13.60
2019-05-10T18:49:51.803Z,13.59
2019-05-10T18:52:20.532Z,13.57
2019-05-10T18:54:49.389Z,13.53
2019-05-10T18:57:19.438Z,13.51
2019-05-10T18:59:48.899Z,13.45
2019-05-10T19:02:20.155Z,13.40
2019-05-10T19:04:52.238Z,13.38
2019-05-10T19:07:19.664Z,13.42
2019-05-10T19:09:48.456Z,13.39
2019-05-10T19:12:21.689Z,13.36
2019-05-10T19:14:47.985Z,13.35
2019-05-10T19:17:16.707Z,13.34
2019-05-10T19:19:47.523Z,13.36
2019-05-10T19:22:18.359Z,13.36
2019-05-10T19:24:47.330Z,13.35
2019-05-10T19:27:16.187Z,13.36
2019-05-10T19:29:47.983Z,13.28
2019-05-10T19:32:18.325Z,13.21
2019-05-10T19:34:48.392Z,13.17
2019-05-10T19:37:28.784Z,13.06
2019-05-10T19:39:48.889Z,13.02
2019-05-10T19:42:17.663Z,12.94
2019-05-10T19:44:46.479Z,12.80
2019-05-10T19:47:17.880Z,12.73
2019-05-10T19:49:51.613Z,12.63
2019-05-10T19:52:21.316Z,12.53
2019-05-10T19:54:54.195Z,12.42
2019-05-10T19:57:25.084Z,12.30
2019-05-10T19:59:55.975Z,12.17
2019-05-10T20:02:24.921Z,12.03
2019-05-10T20:04:53.798Z,11.95
2019-05-10T20:07:25.105Z,11.86
2019-05-10T20:10:00.686Z,11.72
2019-05-10T20:12:30.701Z,11.61
2019-05-10T20:14:59.985Z,11.50
2019-05-10T20:17:31.160Z,11.41
2019-05-10T20:20:01.276Z,11.33
2019-05-10T20:22:30.280Z,11.30
2019-05-10T20:24:59.205Z,11.30
2019-05-10T20:27:28.143Z,11.26
2019-05-10T20:29:58.905Z,11.20
2019-05-10T20:32:27.886Z,11.20
2019-05-10T20:35:04.888Z,11.19
2019-05-10T20:37:33.699Z,11.19
2019-05-10T20:40:09.505Z,11.19
2019-05-10T20:42:39.576Z,11.19
2019-05-10T20:45:12.785Z,11.20
2019-05-10T20:47:42.741Z,11.21
2019-05-10T20:50:12.022Z,11.18
2019-05-10T20:52:42.908Z,11.19
2019-05-10T20:55:13.121Z,11.19
2019-05-10T20:57:43.920Z,11.19
2019-05-10T21:00:12.908Z,11.23
2019-05-10T21:02:41.908Z,11.22
2019-05-10T21:05:10.990Z,11.32
2019-05-10T21:07:41.883Z,11.30
2019-05-10T21:10:12.272Z,11.29
2019-05-10T21:12:42.216Z,11.30
2019-05-10T21:15:11.352Z,11.26
2019-05-10T21:17:40.900Z,11.26
2019-05-10T21:20:12.903Z,11.25
2019-05-10T21:22:41.729Z,11.24
2019-05-10T21:25:11.758Z,11.22
2019-05-10T21:27:41.677Z,11.17
2019-05-10T21:30:11.594Z,11.18
2019-05-10T21:32:41.808Z,11.16
2019-05-10T21:35:10.800Z,11.12
2019-05-10T21:37:39.667Z,11.03
2019-05-10T21:40:08.742Z,10.98
2019-05-10T21:42:37.630Z,10.93
2019-05-10T21:45:06.640Z,10.91
2019-05-10T21:47:50.366Z,10.89
2019-05-10T21:50:06.204Z,10.88
2019-05-10T21:52:35.093Z,10.88
2019-05-10T21:55:04.044Z,10.89
2019-05-10T21:57:32.857Z,10.88
2019-05-10T22:00:01.693Z,10.89
2019-05-10T22:02:31.033Z,10.91
2019-05-10T22:05:00.013Z,10.91
2019-05-10T22:07:28.828Z,10.91
2019-05-10T22:09:57.741Z,10.90
2019-05-10T22:12:26.531Z,10.91
2019-05-10T22:14:55.377Z,10.92
2019-05-10T22:17:24.214Z,10.92
2019-05-10T22:19:52.998Z,10.89
2019-05-10T22:22:21.822Z,10.89
2019-05-10T22:24:50.614Z,10.90
2019-05-10T22:27:19.451Z,10.88
2019-05-10T22:29:48.260Z,10.88
2019-05-10T22:32:17.118Z,10.89
2019-05-10T22:34:46.042Z,10.92
2019-05-10T22:37:14.807Z,10.93
2019-05-10T22:39:43.849Z,10.91
2019-05-10T22:42:12.986Z,10.91
2019-05-10T22:44:41.850Z,10.93
2019-05-10T22:47:10.743Z,10.92
2019-05-10T22:49:39.745Z,10.93
2019-05-10T22:52:08.590Z,10.93
2019-05-10T22:54:37.748Z,10.94
2019-05-10T22:57:06.558Z,10.94
2019-05-10T22:59:35.430Z,10.94
2019-05-10T23:02:04.259Z,10.94
2019-05-10T23:04:33.100Z,10.95
2019-05-10T23:07:02.246Z,10.93
2019-05-10T23:09:31.209Z,10.93
2019-05-10T23:12:00.137Z,10.90
2019-05-10T23:14:29.311Z,10.88
2019-05-10T23:16:58.145Z,10.87
2019-05-10T23:19:27.399Z,10.84
2019-05-10T23:21:56.392Z,10.85
2019-05-10T23:24:39.376Z,10.84
2019-05-10T23:27:08.293Z,10.83
2019-05-10T23:29:37.320Z,10.80
2019-05-10T23:32:06.226Z,10.81
2019-05-10T23:34:35.109Z,10.80
2019-05-10T23:37:04.092Z,10.80
2019-05-10T23:39:40.646Z,10.78
2019-05-10T23:42:03.752Z,10.76
2019-05-10T23:44:32.594Z,10.76
2019-05-10T23:47:01.510Z,10.75
2019-05-10T23:49:30.345Z,10.75
2019-05-10T23:51:59.117Z,10.74
2019-05-10T23:54:27.903Z,10.74
2019-05-10T23:56:56.789Z,10.76
2019-05-10T23:59:27.584Z,10.72
